createdAt,value
2019-02-11T00:00:18.600Z,11.60
2019-02-11T00:02:47.047Z,12.50
2019-02-11T00:05:15.754Z,12.40
2019-02-11T00:07:44.355Z,11.83
2019-02-11T00:10:12.748Z,13.13
2019-02-11T00:12:41.341Z,15.30
2019-02-11T00:15:10.267Z,15.77
2019-02-11T00:17:38.654Z,13.73
2019-02-11T00:20:07.164Z,15.70
2019-02-11T00:22:35.959Z,14.87
2019-02-11T00:25:05.186Z,17.87
2019-02-11T00:27:33.659Z,16.70
2019-02-11T00:30:02.090Z,17.57
2019-02-11T00:32:30.475Z,18.67
2019-02-11T00:34:59.265Z,16.10
2019-02-11T00:37:27.699Z,16.50
2019-02-11T00:39:56.323Z,13.33
2019-02-11T00:42:24.720Z,12.03
2019-02-11T00:44:53.151Z,12.10
2019-02-11T00:47:21.708Z,9.97
2019-02-11T00:49:50.463Z,10.13
2019-02-11T00:52:19.272Z,8.97
2019-02-11T00:54:47.800Z,9.43
2019-02-11T00:57:16.550Z,9.33
2019-02-11T00:59:44.767Z,8.80
2019-02-11T01:02:13.417Z,8.47
2019-02-11T01:04:42.038Z,8.60
2019-02-11T01:07:10.464Z,8.17
2019-02-11T01:09:39.120Z,8.77
2019-02-11T01:12:08.068Z,8.00
2019-02-11T01:14:36.618Z,8.73
2019-02-11T01:17:05.123Z,8.77
2019-02-11T01:19:33.882Z,9.23
2019-02-11T01:22:02.580Z,10.50
2019-02-11T01:24:31.249Z,10.57
2019-02-11T01:26:59.858Z,10.77
2019-02-11T01:29:28.445Z,10.93
2019-02-11T01:31:57.253Z,10.80
2019-02-11T01:34:25.914Z,12.00
2019-02-11T01:36:54.260Z,9.23
2019-02-11T01:39:22.647Z,10.17
2019-02-11T01:41:51.958Z,9.87
2019-02-11T01:44:20.706Z,10.13
2019-02-11T01:46:49.095Z,9.97
2019-02-11T01:49:17.567Z,11.00
2019-02-11T01:51:46.122Z,10.90
2019-02-11T01:54:14.512Z,10.77
2019-02-11T01:56:42.970Z,12.00
2019-02-11T01:59:11.570Z,12.53
2019-02-11T02:01:40.142Z,12.70
2019-02-11T02:04:08.551Z,12.33
2019-02-11T02:06:37.068Z,12.87
2019-02-11T02:09:05.897Z,11.80
2019-02-11T02:11:34.278Z,11.60
2019-02-11T02:14:02.887Z,10.70
2019-02-11T02:16:31.739Z,7.60
2019-02-11T02:19:00.600Z,6.87
2019-02-11T02:21:29.127Z,7.10
2019-02-11T02:23:57.494Z,7.50
2019-02-11T02:26:26.381Z,6.83
2019-02-11T02:28:55.164Z,6.30
2019-02-11T02:31:23.750Z,6.10
2019-02-11T02:33:52.231Z,5.53
2019-02-11T02:36:20.728Z,5.73
2019-02-11T02:38:49.536Z,5.10
2019-02-11T02:41:17.919Z,4.00
2019-02-11T02:43:55.112Z,3.20
2019-02-11T02:46:18.015Z,3.43
2019-02-11T02:48:46.403Z,3.63
2019-02-11T02:51:14.996Z,3.43
2019-02-11T02:53:43.381Z,3.70
2019-02-11T02:56:11.832Z,3.03
2019-02-11T02:58:40.255Z,1.90
2019-02-11T03:01:08.903Z,2.10
2019-02-11T03:03:37.288Z,2.23
2019-02-11T03:06:05.712Z,3.40
2019-02-11T03:08:34.447Z,2.60
2019-02-11T03:11:03.041Z,3.23
2019-02-11T03:13:32.212Z,2.73
2019-02-11T03:16:00.759Z,2.50
2019-02-11T03:18:29.519Z,2.43
2019-02-11T03:20:58.205Z,2.53
2019-02-11T03:23:26.780Z,2.50
2019-02-11T03:25:55.357Z,2.30
2019-02-11T03:28:24.019Z,2.70
2019-02-11T03:30:52.575Z,2.90
2019-02-11T03:33:21.169Z,2.60
2019-02-11T03:35:49.976Z,2.30
2019-02-11T03:38:18.533Z,2.50
2019-02-11T03:40:47.122Z,2.10
2019-02-11T03:43:15.550Z,2.30
2019-02-11T03:45:44.970Z,2.20
2019-02-11T03:48:13.697Z,2.50
2019-02-11T03:50:42.215Z,2.53
2019-02-11T03:53:10.986Z,2.63
2019-02-11T03:55:39.546Z,2.30
2019-02-11T03:58:07.977Z,2.20
2019-02-11T04:00:36.361Z,2.80
2019-02-11T04:03:05.224Z,2.20
2019-02-11T04:05:33.640Z,2.50
2019-02-11T04:08:02.473Z,3.10
2019-02-11T04:10:31.172Z,1.70
2019-02-11T04:12:59.755Z,2.50
2019-02-11T04:15:28.480Z,2.70
2019-02-11T04:17:57.126Z,2.30
2019-02-11T04:20:25.615Z,2.40
2019-02-11T04:22:54.086Z,3.70
2019-02-11T04:25:22.816Z,2.70
2019-02-11T04:27:51.382Z,2.60
2019-02-11T04:30:19.689Z,3.00
2019-02-11T04:32:48.357Z,3.20
2019-02-11T04:35:16.817Z,2.63
2019-02-11T04:37:45.443Z,2.80
2019-02-11T04:40:13.848Z,3.13
2019-02-11T04:42:42.718Z,2.40
2019-02-11T04:45:11.435Z,2.10
2019-02-11T04:47:41.113Z,2.50
2019-02-11T04:50:10.200Z,2.93
2019-02-11T04:52:41.637Z,2.97
2019-02-11T04:55:10.192Z,2.30
2019-02-11T04:57:38.675Z,3.23
2019-02-11T05:00:10.142Z,2.77
2019-02-11T05:02:38.589Z,2.23
2019-02-11T05:05:08.764Z,2.40
2019-02-11T05:07:37.148Z,2.97
2019-02-11T05:10:14.278Z,2.73
2019-02-11T05:12:42.677Z,2.33
2019-02-11T05:15:11.898Z,2.60
2019-02-11T05:17:40.435Z,2.40
2019-02-11T05:20:13.431Z,2.50
2019-02-11T05:22:41.943Z,2.50
2019-02-11T05:25:10.386Z,2.60
2019-02-11T05:27:38.745Z,1.77
2019-02-11T05:30:10.476Z,2.37
2019-02-11T05:32:38.909Z,2.33
2019-02-11T05:35:08.037Z,2.77
2019-02-11T05:37:36.421Z,2.83
2019-02-11T05:40:08.462Z,2.67
2019-02-11T05:42:37.195Z,3.77
2019-02-11T05:45:07.718Z,2.60
2019-02-11T05:47:36.432Z,2.70
2019-02-11T05:50:08.924Z,2.57
2019-02-11T05:52:37.438Z,2.20
2019-02-11T05:55:07.575Z,2.60
2019-02-11T05:57:36.231Z,2.03
2019-02-11T06:00:08.356Z,3.57
2019-02-11T06:02:37.035Z,2.20
2019-02-11T06:05:07.369Z,2.30
2019-02-11T06:07:35.752Z,2.80
2019-02-11T06:10:06.814Z,3.13
2019-02-11T06:12:35.463Z,2.63
2019-02-11T06:15:05.190Z,3.10
2019-02-11T06:17:33.616Z,2.63
2019-02-11T06:20:02.265Z,1.97
2019-02-11T06:22:31.078Z,2.40
2019-02-11T06:24:59.742Z,2.43
2019-02-11T06:27:28.197Z,2.50
2019-02-11T06:29:57.000Z,2.75
2019-02-11T06:32:25.594Z,2.20
2019-02-11T06:34:54.244Z,2.40
2019-02-11T06:37:22.791Z,2.10
2019-02-11T06:39:51.215Z,1.90
2019-02-11T06:42:19.712Z,2.60
2019-02-11T06:44:48.131Z,2.87
2019-02-11T06:47:16.918Z,3.37
2019-02-11T06:49:45.380Z,3.37
2019-02-11T06:52:14.806Z,4.33
2019-02-11T06:54:43.228Z,2.43
2019-02-11T06:57:11.955Z,3.00
2019-02-11T06:59:40.539Z,7.97
2019-02-11T07:02:09.290Z,11.27
2019-02-11T07:04:37.975Z,4.13
2019-02-11T07:07:06.363Z,5.20
2019-02-11T07:09:35.057Z,5.83
2019-02-11T07:12:03.438Z,2.90
2019-02-11T07:14:31.815Z,4.60
2019-02-11T07:17:00.346Z,3.60
2019-02-11T07:19:28.730Z,2.50
2019-02-11T07:21:57.123Z,4.43
2019-02-11T07:24:25.538Z,3.50
2019-02-11T07:26:54.193Z,3.47
2019-02-11T07:29:22.726Z,4.50
2019-02-11T07:31:51.151Z,5.43
2019-02-11T07:34:19.602Z,6.40
2019-02-11T07:36:48.085Z,6.40
2019-02-11T07:39:17.044Z,4.70
2019-02-11T07:41:47.338Z,5.17
2019-02-11T07:44:20.499Z,7.23
2019-02-11T07:46:48.964Z,7.87
2019-02-11T07:49:17.615Z,5.33
2019-02-11T07:51:46.200Z,5.30
2019-02-11T07:54:15.526Z,4.03
2019-02-11T07:56:44.080Z,4.77
2019-02-11T07:59:12.529Z,4.40
2019-02-11T08:01:40.980Z,6.23
2019-02-11T08:04:09.790Z,10.93
2019-02-11T08:06:38.470Z,5.03
2019-02-11T08:09:09.994Z,5.97
2019-02-11T08:11:38.381Z,3.60
2019-02-11T08:14:07.003Z,4.73
2019-02-11T08:16:35.487Z,3.43
2019-02-11T08:19:04.283Z,4.17
2019-02-11T08:21:32.695Z,5.37
2019-02-11T08:24:01.349Z,5.27
2019-02-11T08:26:29.938Z,3.90
2019-02-11T08:28:58.714Z,5.33
2019-02-11T08:31:27.095Z,5.60
2019-02-11T08:33:55.511Z,4.47
2019-02-11T08:36:23.937Z,3.53
2019-02-11T08:38:52.316Z,3.90
2019-02-11T08:41:20.704Z,5.40
2019-02-11T08:43:49.387Z,4.27
2019-02-11T08:46:17.767Z,4.90
2019-02-11T08:48:46.158Z,5.87
2019-02-11T08:51:14.591Z,3.20
2019-02-11T08:53:43.044Z,3.87
2019-02-11T08:56:12.327Z,3.83
2019-02-11T08:58:40.837Z,4.10
2019-02-11T09:01:09.290Z,3.60
2019-02-11T09:03:37.743Z,4.47
2019-02-11T09:06:06.298Z,6.67
2019-02-11T09:08:34.736Z,4.30
2019-02-11T09:11:03.651Z,6.80
2019-02-11T09:13:32.172Z,3.87
2019-02-11T09:16:00.635Z,3.13
2019-02-11T09:18:29.087Z,4.00
2019-02-11T09:20:57.627Z,2.77
2019-02-11T09:23:26.160Z,4.90
2019-02-11T09:26:19.499Z,4.47
2019-02-11T09:28:47.876Z,3.80
2019-02-11T09:31:16.404Z,4.53
2019-02-11T09:33:44.835Z,5.30
2019-02-11T09:36:13.370Z,3.60
2019-02-11T09:38:41.832Z,4.60
2019-02-11T09:41:10.573Z,10.60
2019-02-11T09:43:38.918Z,5.83
2019-02-11T09:46:07.640Z,4.60
2019-02-11T09:48:36.072Z,3.83
2019-02-11T09:51:05.294Z,3.10
2019-02-11T09:53:33.934Z,3.83
2019-02-11T09:56:02.361Z,3.83
2019-02-11T09:58:32.113Z,4.80
2019-02-11T10:01:00.565Z,4.00
2019-02-11T10:03:29.017Z,4.80
2019-02-11T10:05:57.417Z,3.63
2019-02-11T10:08:25.805Z,4.53
2019-02-11T10:10:54.395Z,3.30
2019-02-11T10:13:23.073Z,3.50
2019-02-11T10:15:51.465Z,3.50
2019-02-11T10:18:20.167Z,4.13
2019-02-11T10:20:48.560Z,4.57
2019-02-11T10:23:16.943Z,3.60
2019-02-11T10:25:45.550Z,5.03
2019-02-11T10:28:13.933Z,3.67
2019-02-11T10:30:42.348Z,4.03
2019-02-11T10:33:10.941Z,3.00
2019-02-11T10:35:42.349Z,4.57
2019-02-11T10:38:09.980Z,3.43
2019-02-11T10:40:38.600Z,3.50
2019-02-11T10:43:07.009Z,3.57
2019-02-11T10:45:36.809Z,3.93
2019-02-11T10:48:05.294Z,4.03
2019-02-11T10:50:33.716Z,3.97
2019-02-11T10:53:02.334Z,3.67
2019-02-11T10:55:30.764Z,4.30
2019-02-11T10:57:59.151Z,3.90
2019-02-11T11:00:28.661Z,3.87
2019-02-11T11:02:57.732Z,3.17
2019-02-11T11:05:26.100Z,3.17
2019-02-11T11:07:54.651Z,4.10
2019-02-11T11:10:26.498Z,3.93
2019-02-11T11:12:55.094Z,4.30
2019-02-11T11:15:23.662Z,3.20
2019-02-11T11:17:52.200Z,3.63
2019-02-11T11:20:20.585Z,3.20
2019-02-11T11:22:48.955Z,3.43
2019-02-11T11:25:18.332Z,3.33
2019-02-11T11:27:46.789Z,2.80
2019-02-11T11:30:16.357Z,3.20
2019-02-11T11:32:45.530Z,2.80
2019-02-11T11:35:18.396Z,2.70
2019-02-11T11:37:46.850Z,3.47
2019-02-11T11:40:19.800Z,3.63
2019-02-11T11:42:48.702Z,3.17
2019-02-11T11:45:18.760Z,2.80
2019-02-11T11:47:47.545Z,3.77
2019-02-11T11:50:17.018Z,3.43
2019-02-11T11:52:45.463Z,3.37
2019-02-11T11:55:19.505Z,3.83
2019-02-11T11:57:48.166Z,3.40
2019-02-11T12:00:30.247Z,2.90
2019-02-11T12:03:03.637Z,2.30
2019-02-11T12:05:31.007Z,3.27
2019-02-11T12:07:59.736Z,2.60
2019-02-11T12:10:28.421Z,3.60
2019-02-11T12:12:57.275Z,3.27
2019-02-11T12:15:27.477Z,5.60
2019-02-11T12:17:56.189Z,3.70
2019-02-11T12:20:24.589Z,4.97
2019-02-11T12:22:53.176Z,2.83
2019-02-11T12:25:22.101Z,2.70
2019-02-11T12:27:50.689Z,3.50
2019-02-11T12:30:24.450Z,3.17
2019-02-11T12:32:54.901Z,3.20
2019-02-11T12:35:22.947Z,4.47
2019-02-11T12:37:51.623Z,3.57
2019-02-11T12:40:20.837Z,4.63
2019-02-11T12:42:52.653Z,4.70
2019-02-11T12:45:22.188Z,4.63
2019-02-11T12:47:50.945Z,6.33
2019-02-11T12:50:19.587Z,4.60
2019-02-11T12:52:48.053Z,3.57
2019-02-11T12:55:17.895Z,4.50
2019-02-11T12:57:46.395Z,4.00
2019-02-11T13:00:17.928Z,4.63
2019-02-11T13:02:46.903Z,5.37
2019-02-11T13:05:16.519Z,6.43
2019-02-11T13:07:44.996Z,5.73
2019-02-11T13:10:17.296Z,6.57
2019-02-11T13:12:45.933Z,6.73
2019-02-11T13:15:41.355Z,15.43
2019-02-11T13:17:45.889Z,7.70
2019-02-11T13:20:18.205Z,6.00
2019-02-11T13:22:46.890Z,8.00
2019-02-11T13:25:16.641Z,7.37
2019-02-11T13:27:45.235Z,7.43
2019-02-11T13:30:22.516Z,6.03
2019-02-11T13:32:50.978Z,5.43
2019-02-11T13:35:19.683Z,6.83
2019-02-11T13:37:48.349Z,5.67
2019-02-11T13:40:16.897Z,5.70
2019-02-11T13:42:45.431Z,6.00
2019-02-11T13:45:18.983Z,7.00
2019-02-11T13:47:54.789Z,6.87
2019-02-11T13:50:27.984Z,7.13
2019-02-11T13:52:56.680Z,5.77
2019-02-11T13:55:30.075Z,8.63
2019-02-11T13:57:55.669Z,9.50
2019-02-11T14:00:27.205Z,18.47
2019-02-11T14:02:58.521Z,14.50
2019-02-11T14:05:28.613Z,17.93
2019-02-11T14:07:59.902Z,7.47
2019-02-11T14:10:29.185Z,10.97
2019-02-11T14:12:58.224Z,7.23
2019-02-11T14:15:26.979Z,8.40
2019-02-11T14:18:10.466Z,4.63
2019-02-11T14:20:27.074Z,5.93
2019-02-11T14:22:55.477Z,6.53
2019-02-11T14:25:40.651Z,8.30
2019-02-11T14:27:55.803Z,5.70
2019-02-11T14:30:24.867Z,5.00
2019-02-11T14:32:53.876Z,6.70
2019-02-11T14:35:22.401Z,6.67
2019-02-11T14:37:50.796Z,7.60
2019-02-11T14:40:19.900Z,112.10
2019-02-11T14:42:48.737Z,53.57
2019-02-11T14:45:21.233Z,17.90
2019-02-11T14:47:49.655Z,11.53
2019-02-11T14:50:18.602Z,15.57
2019-02-11T14:52:47.009Z,10.37
2019-02-11T14:55:15.643Z,10.33
2019-02-11T14:57:44.174Z,11.97
2019-02-11T15:00:19.846Z,31.10
2019-02-11T15:02:48.870Z,12.90
2019-02-11T15:05:17.953Z,9.10
2019-02-11T15:07:46.800Z,8.37
2019-02-11T15:10:16.579Z,9.53
2019-02-11T15:12:45.036Z,21.57
2019-02-11T15:15:14.035Z,20.20
2019-02-11T15:17:44.791Z,17.50
2019-02-11T15:20:17.646Z,14.70
2019-02-11T15:22:46.422Z,43.63
2019-02-11T15:25:16.932Z,38.10
2019-02-11T15:27:45.359Z,40.70
2019-02-11T15:30:16.237Z,36.53
2019-02-11T15:32:44.794Z,15.57
2019-02-11T15:35:13.393Z,21.37
2019-02-11T15:37:41.897Z,40.53
2019-02-11T15:40:16.052Z,42.20
2019-02-11T15:42:44.761Z,17.00
2019-02-11T15:45:14.586Z,17.63
2019-02-11T15:47:43.544Z,4.80
2019-02-11T15:50:20.234Z,6.60
2019-02-11T15:52:48.831Z,19.20
2019-02-11T15:55:19.569Z,19.17
2019-02-11T15:57:47.993Z,11.77
2019-02-11T16:00:23.371Z,10.87
2019-02-11T16:02:51.816Z,9.03
2019-02-11T16:05:20.795Z,15.13
2019-02-11T16:07:49.592Z,19.23
2019-02-11T16:10:24.162Z,6.90
2019-02-11T16:12:54.033Z,23.40
2019-02-11T16:15:24.546Z,12.07
2019-02-11T16:17:53.191Z,8.20
2019-02-11T16:20:22.189Z,23.70
2019-02-11T16:22:50.763Z,13.60
2019-02-11T16:25:19.319Z,13.63
2019-02-11T16:27:48.911Z,16.83
2019-02-11T16:30:19.086Z,7.77
2019-02-11T16:32:51.814Z,86.40
2019-02-11T16:35:21.181Z,59.73
2019-02-11T16:37:49.593Z,20.27
2019-02-11T16:40:31.794Z,29.23
2019-02-11T16:43:02.814Z,31.57
2019-02-11T16:45:31.211Z,41.57
2019-02-11T16:47:59.801Z,26.83
2019-02-11T16:50:28.976Z,5.07
2019-02-11T16:52:57.511Z,19.00
2019-02-11T16:55:27.476Z,48.97
2019-02-11T16:57:59.457Z,29.07
2019-02-11T17:00:27.934Z,70.90
2019-02-11T17:02:57.166Z,33.10
2019-02-11T17:05:25.795Z,19.93
2019-02-11T17:07:54.572Z,25.07
2019-02-11T17:10:23.668Z,93.10
2019-02-11T17:12:52.769Z,39.37
2019-02-11T17:15:22.427Z,36.93
2019-02-11T17:17:51.024Z,7.20
2019-02-11T17:20:19.487Z,9.53
2019-02-11T17:22:48.730Z,38.47
2019-02-11T17:25:17.373Z,12.30
2019-02-11T17:27:46.334Z,40.13
2019-02-11T17:30:26.945Z,20.40
2019-02-11T17:32:56.907Z,20.07
2019-02-11T17:35:25.376Z,6.97
2019-02-11T17:37:55.014Z,10.90
2019-02-11T17:40:24.066Z,11.50
2019-02-11T17:42:53.114Z,36.40
2019-02-11T17:45:24.357Z,9.87
2019-02-11T17:47:52.991Z,27.03
2019-02-11T17:50:21.446Z,38.47
2019-02-11T17:52:53.087Z,36.53
2019-02-11T17:55:22.052Z,38.93
2019-02-11T17:57:50.967Z,28.93
2019-02-11T18:00:27.214Z,25.20
2019-02-11T18:02:55.674Z,11.90
2019-02-11T18:05:24.071Z,14.80
2019-02-11T18:07:52.938Z,28.67
2019-02-11T18:10:21.684Z,45.93
2019-02-11T18:12:50.574Z,28.07
2019-02-11T18:15:19.643Z,9.20
2019-02-11T18:17:49.327Z,13.13
2019-02-11T18:20:17.711Z,8.27
2019-02-11T18:22:51.337Z,9.73
2019-02-11T18:25:19.850Z,16.30
2019-02-11T18:27:48.390Z,22.30
2019-02-11T18:30:17.222Z,19.23
2019-02-11T18:32:45.945Z,12.33
2019-02-11T18:35:16.761Z,23.87
2019-02-11T18:37:45.652Z,27.93
2019-02-11T18:40:16.865Z,12.03
2019-02-11T18:42:45.474Z,13.23
2019-02-11T18:45:15.231Z,15.67
2019-02-11T18:47:43.808Z,7.80
2019-02-11T18:50:16.239Z,9.50
2019-02-11T18:52:44.936Z,9.23
2019-02-11T18:55:20.369Z,7.43
2019-02-11T18:57:49.450Z,9.83
2019-02-11T19:00:19.358Z,7.90
2019-02-11T19:02:49.110Z,9.93
2019-02-11T19:05:20.172Z,11.10
2019-02-11T19:07:49.679Z,7.73
2019-02-11T19:10:19.475Z,13.77
2019-02-11T19:12:48.158Z,16.87
2019-02-11T19:15:18.306Z,14.47
2019-02-11T19:17:49.490Z,14.70
2019-02-11T19:20:19.976Z,17.67
2019-02-11T19:22:49.102Z,17.93
2019-02-11T19:25:18.251Z,13.83
2019-02-11T19:27:47.479Z,10.87
2019-02-11T19:30:22.306Z,14.20
2019-02-11T19:32:51.007Z,13.60
2019-02-11T19:35:19.882Z,40.13
2019-02-11T19:37:48.633Z,8.20
2019-02-11T19:40:21.140Z,14.17
2019-02-11T19:42:52.695Z,35.30
2019-02-11T19:45:22.628Z,13.23
2019-02-11T19:47:51.918Z,14.70
2019-02-11T19:50:21.186Z,11.87
2019-02-11T19:52:49.748Z,6.23
2019-02-11T19:55:18.572Z,18.43
2019-02-11T19:57:47.806Z,12.00
2019-02-11T20:00:23.331Z,21.90
2019-02-11T20:02:51.796Z,30.93
2019-02-11T20:05:20.255Z,10.53
2019-02-11T20:07:48.962Z,14.37
2019-02-11T20:10:23.320Z,25.30
2019-02-11T20:12:52.042Z,25.97
2019-02-11T20:15:23.901Z,47.17
2019-02-11T20:17:53.122Z,17.07
2019-02-11T20:20:22.618Z,16.83
2019-02-11T20:22:52.070Z,19.00
2019-02-11T20:25:20.665Z,31.87
2019-02-11T20:27:49.259Z,12.87
2019-02-11T20:30:23.395Z,30.90
2019-02-11T20:32:52.067Z,14.30
2019-02-11T20:35:20.873Z,12.90
2019-02-11T20:37:49.395Z,9.93
2019-02-11T20:40:20.542Z,13.07
2019-02-11T20:42:48.973Z,12.77
2019-02-11T20:45:20.610Z,15.87
2019-02-11T20:47:49.274Z,50.57
2019-02-11T20:50:17.997Z,38.90
2019-02-11T20:52:46.393Z,13.27
2019-02-11T20:55:15.091Z,34.30
2019-02-11T20:57:44.739Z,12.60
2019-02-11T21:00:16.709Z,12.97
2019-02-11T21:02:45.240Z,12.50
2019-02-11T21:05:13.835Z,26.37
2019-02-11T21:07:42.228Z,10.43
2019-02-11T21:10:16.266Z,20.20
2019-02-11T21:12:44.824Z,13.33
2019-02-11T21:15:15.086Z,56.53
2019-02-11T21:17:43.554Z,35.03
2019-02-11T21:20:21.162Z,60.17
2019-02-11T21:22:49.974Z,42.53
2019-02-11T21:25:19.611Z,48.60
2019-02-11T21:27:48.135Z,41.97
2019-02-11T21:30:16.527Z,25.67
2019-02-11T21:32:44.965Z,53.97
2019-02-11T21:35:13.638Z,52.37
2019-02-11T21:37:42.178Z,33.80
2019-02-11T21:40:10.648Z,53.10
2019-02-11T21:42:39.082Z,47.13
2019-02-11T21:45:10.323Z,29.03
2019-02-11T21:47:38.707Z,25.00
2019-02-11T21:50:13.510Z,39.30
2019-02-11T21:52:41.978Z,61.73
2019-02-11T21:55:18.663Z,16.93
2019-02-11T21:57:47.051Z,11.93
2019-02-11T22:00:18.145Z,15.00
2019-02-11T22:02:46.614Z,20.97
2019-02-11T22:05:15.301Z,15.43
2019-02-11T22:07:44.047Z,21.23
2019-02-11T22:10:14.700Z,14.90
2019-02-11T22:12:43.176Z,12.73
2019-02-11T22:15:13.194Z,17.93
2019-02-11T22:17:41.609Z,33.73
2019-02-11T22:20:15.188Z,4.40
2019-02-11T22:22:44.083Z,37.70
2019-02-11T22:25:13.892Z,11.10
2019-02-11T22:27:42.735Z,7.20
2019-02-11T22:30:21.967Z,6.40
2019-02-11T22:32:50.367Z,6.73
2019-02-11T22:35:18.755Z,21.43
2019-02-11T22:37:51.606Z,12.97
2019-02-11T22:40:20.031Z,8.37
2019-02-11T22:42:48.465Z,34.47
2019-02-11T22:45:19.329Z,9.03
2019-02-11T22:47:47.814Z,9.10
2019-02-11T22:50:16.357Z,6.53
2019-02-11T22:52:45.299Z,4.80
2019-02-11T22:55:15.058Z,4.57
2019-02-11T22:57:43.449Z,6.63
2019-02-11T23:00:15.648Z,6.50
2019-02-11T23:02:43.986Z,5.70
2019-02-11T23:05:12.633Z,4.93
2019-02-11T23:07:41.049Z,6.43
2019-02-11T23:10:09.523Z,4.13
2019-02-11T23:12:38.256Z,3.77
2019-02-11T23:15:08.852Z,5.27
2019-02-11T23:17:37.405Z,8.17
2019-02-11T23:20:07.423Z,6.27
2019-02-11T23:22:35.947Z,4.27
2019-02-11T23:25:04.659Z,3.70
2019-02-11T23:27:33.217Z,4.67
2019-02-11T23:30:02.947Z,4.90
2019-02-11T23:32:31.592Z,9.73
2019-02-11T23:35:00.272Z,4.57
2019-02-11T23:37:29.266Z,6.43
2019-02-11T23:39:57.720Z,4.80
2019-02-11T23:42:26.110Z,8.17
2019-02-11T23:44:54.982Z,6.17
2019-02-11T23:47:23.362Z,5.30
2019-02-11T23:49:52.243Z,4.07
2019-02-11T23:52:20.814Z,4.70
2019-02-11T23:54:49.203Z,5.77
2019-02-11T23:57:17.671Z,3.67
2019-02-11T23:59:46.476Z,3.53
